sensor_id;sensor_type;location;lat;lon;timestamp;pressure;altitude;pressure_sealevel;temperature;humidity
59493;BME280;45497;43.996;22.876;2023-08-08T00:00:49;101006.16;;;18.52;60.12
59493;BME280;45497;43.996;22.876;2023-08-08T00:03:14;101002.09;;;18.43;60.37
59493;BME280;45497;43.996;22.876;2023-08-08T00:05:40;100998.97;;;18.46;60.30
59493;BME280;45497;43.996;22.876;2023-08-08T00:08:06;100999.59;;;18.48;60.23
59493;BME280;45497;43.996;22.876;2023-08-08T00:10:32;101007.91;;;18.40;60.41
59493;BME280;45497;43.996;22.876;2023-08-08T00:12:58;101015.59;;;18.30;60.66
59493;BME280;45497;43.996;22.876;2023-08-08T00:15:23;101011.47;;;18.27;60.65
59493;BME280;45497;43.996;22.876;2023-08-08T00:17:49;101004.00;;;18.36;60.46
59493;BME280;45497;43.996;22.876;2023-08-08T00:20:14;100996.63;;;18.25;60.86
59493;BME280;45497;43.996;22.876;2023-08-08T00:22:41;100984.59;;;18.34;60.70
59493;BME280;45497;43.996;22.876;2023-08-08T00:25:07;100971.78;;;18.36;60.35
59493;BME280;45497;43.996;22.876;2023-08-08T00:27:32;100972.38;;;18.38;60.13
59493;BME280;45497;43.996;22.876;2023-08-08T00:29:58;100983.31;;;18.43;60.12
59493;BME280;45497;43.996;22.876;2023-08-08T00:32:23;100985.53;;;18.53;59.92
59493;BME280;45497;43.996;22.876;2023-08-08T00:34:48;100994.38;;;18.60;59.67
59493;BME280;45497;43.996;22.876;2023-08-08T00:37:14;100997.19;;;18.65;59.61
59493;BME280;45497;43.996;22.876;2023-08-08T00:39:40;101006.03;;;18.72;59.34
59493;BME280;45497;43.996;22.876;2023-08-08T00:42:07;101006.81;;;18.80;59.31
59493;BME280;45497;43.996;22.876;2023-08-08T00:44:33;101013.06;;;18.73;59.13
59493;BME280;45497;43.996;22.876;2023-08-08T00:46:58;101021.38;;;18.65;59.16
59493;BME280;45497;43.996;22.876;2023-08-08T00:49:24;101022.00;;;18.67;59.34
59493;BME280;45497;43.996;22.876;2023-08-08T00:51:49;101020.66;;;18.51;59.83
59493;BME280;45497;43.996;22.876;2023-08-08T00:54:15;101029.59;;;18.39;60.00
59493;BME280;45497;43.996;22.876;2023-08-08T00:56:40;101035.84;;;18.26;60.33
59493;BME280;45497;43.996;22.876;2023-08-08T00:59:07;101026.13;;;18.25;60.19
59493;BME280;45497;43.996;22.876;2023-08-08T01:01:33;101025.06;;;18.32;60.11
59493;BME280;45497;43.996;22.876;2023-08-08T01:03:59;101033.13;;;18.32;59.98
59493;BME280;45497;43.996;22.876;2023-08-08T01:06:34;101037.03;;;18.37;59.69
59493;BME280;45497;43.996;22.876;2023-08-08T01:12:27;101036.66;;;18.65;59.03
59493;BME280;45497;43.996;22.876;2023-08-08T01:14:53;101024.84;;;18.72;58.89
59493;BME280;45497;43.996;22.876;2023-08-08T01:17:21;101037.41;;;18.79;58.65
59493;BME280;45497;43.996;22.876;2023-08-08T01:19:47;101040.91;;;18.86;58.59
59493;BME280;45497;43.996;22.876;2023-08-08T01:22:39;101049.16;;;18.91;58.48
59493;BME280;45497;43.996;22.876;2023-08-08T01:25:08;101053.56;;;19.10;58.43
59493;BME280;45497;43.996;22.876;2023-08-08T01:27:35;101059.38;;;19.07;58.01
59493;BME280;45497;43.996;22.876;2023-08-08T01:30:00;101048.06;;;18.99;57.97
59493;BME280;45497;43.996;22.876;2023-08-08T01:32:26;101054.34;;;18.86;58.20
59493;BME280;45497;43.996;22.876;2023-08-08T01:34:51;101062.19;;;18.87;58.20
59493;BME280;45497;43.996;22.876;2023-08-08T01:37:25;101071.66;;;18.90;58.36
59493;BME280;45497;43.996;22.876;2023-08-08T01:39:54;101081.38;;;18.91;58.18
59493;BME280;45497;43.996;22.876;2023-08-08T01:42:24;101071.28;;;18.86;58.31
59493;BME280;45497;43.996;22.876;2023-08-08T01:44:50;101072.13;;;18.80;58.65
59493;BME280;45497;43.996;22.876;2023-08-08T01:47:15;101085.97;;;18.84;58.43
59493;BME280;45497;43.996;22.876;2023-08-08T01:49:41;101078.31;;;18.87;58.30
59493;BME280;45497;43.996;22.876;2023-08-08T01:52:06;101072.72;;;18.89;58.09
59493;BME280;45497;43.996;22.876;2023-08-08T01:54:32;101064.69;;;18.82;57.81
59493;BME280;45497;43.996;22.876;2023-08-08T01:56:57;101072.38;;;18.65;57.90
59493;BME280;45497;43.996;22.876;2023-08-08T01:59:23;101080.13;;;18.48;58.33
59493;BME280;45497;43.996;22.876;2023-08-08T02:01:48;101081.81;;;18.43;58.35
59493;BME280;45497;43.996;22.876;2023-08-08T02:04:14;101081.19;;;18.41;58.46
59493;BME280;45497;43.996;22.876;2023-08-08T02:06:39;101086.34;;;18.42;58.30
59493;BME280;45497;43.996;22.876;2023-08-08T02:09:05;101089.25;;;18.41;58.26
59493;BME280;45497;43.996;22.876;2023-08-08T02:11:31;101079.13;;;18.43;58.13
59493;BME280;45497;43.996;22.876;2023-08-08T02:13:56;101085.91;;;18.45;58.17
59493;BME280;45497;43.996;22.876;2023-08-08T02:16:22;101084.91;;;18.40;58.27
59493;BME280;45497;43.996;22.876;2023-08-08T02:18:47;101096.50;;;18.40;58.21
59493;BME280;45497;43.996;22.876;2023-08-08T02:21:13;101102.69;;;18.34;58.10
59493;BME280;45497;43.996;22.876;2023-08-08T02:23:38;101100.19;;;18.39;57.99
59493;BME280;45497;43.996;22.876;2023-08-08T02:26:04;101116.63;;;18.56;57.81
59493;BME280;45497;43.996;22.876;2023-08-08T02:28:29;101117.81;;;18.73;57.50
59493;BME280;45497;43.996;22.876;2023-08-08T02:30:55;101121.50;;;18.79;57.62
59493;BME280;45497;43.996;22.876;2023-08-08T02:33:20;101112.91;;;18.64;57.70
59493;BME280;45497;43.996;22.876;2023-08-08T02:35:46;101126.56;;;18.49;58.04
59493;BME280;45497;43.996;22.876;2023-08-08T02:38:11;101138.78;;;18.45;58.15
59493;BME280;45497;43.996;22.876;2023-08-08T02:40:37;101131.53;;;18.45;57.97
59493;BME280;45497;43.996;22.876;2023-08-08T02:43:04;101137.91;;;18.51;57.98
59493;BME280;45497;43.996;22.876;2023-08-08T02:45:29;101126.63;;;18.36;58.45
59493;BME280;45497;43.996;22.876;2023-08-08T02:47:55;101128.31;;;18.30;58.41
59493;BME280;45497;43.996;22.876;2023-08-08T02:50:20;101127.50;;;18.29;58.38
59493;BME280;45497;43.996;22.876;2023-08-08T02:52:46;101133.88;;;18.35;58.11
59493;BME280;45497;43.996;22.876;2023-08-08T02:55:11;101138.44;;;18.28;58.30
59493;BME280;45497;43.996;22.876;2023-08-08T02:57:37;101141.53;;;18.31;58.21
59493;BME280;45497;43.996;22.876;2023-08-08T03:00:02;101155.31;;;18.42;57.80
59493;BME280;45497;43.996;22.876;2023-08-08T03:02:29;101154.06;;;18.44;57.79
59493;BME280;45497;43.996;22.876;2023-08-08T03:04:55;101152.78;;;18.53;57.63
59493;BME280;45497;43.996;22.876;2023-08-08T03:07:20;101137.13;;;18.44;57.52
59493;BME280;45497;43.996;22.876;2023-08-08T03:09:46;101153.41;;;18.49;57.63
59493;BME280;45497;43.996;22.876;2023-08-08T03:12:12;101144.75;;;18.47;57.42
59493;BME280;45497;43.996;22.876;2023-08-08T03:14:37;101152.41;;;18.50;57.67
59493;BME280;45497;43.996;22.876;2023-08-08T03:17:03;101144.34;;;18.43;58.09
59493;BME280;45497;43.996;22.876;2023-08-08T03:19:28;101148.50;;;18.46;57.73
59493;BME280;45497;43.996;22.876;2023-08-08T03:21:54;101154.47;;;18.48;57.67
59493;BME280;45497;43.996;22.876;2023-08-08T03:24:19;101158.38;;;18.45;57.63
59493;BME280;45497;43.996;22.876;2023-08-08T03:26:45;101175.53;;;18.44;57.68
59493;BME280;45497;43.996;22.876;2023-08-08T03:29:10;101176.75;;;18.48;57.94
59493;BME280;45497;43.996;22.876;2023-08-08T03:31:38;101173.00;;;18.56;57.45
59493;BME280;45497;43.996;22.876;2023-08-08T03:34:03;101191.41;;;18.52;57.43
59493;BME280;45497;43.996;22.876;2023-08-08T03:36:29;101174.94;;;18.42;57.65
59493;BME280;45497;43.996;22.876;2023-08-08T03:38:55;101191.84;;;18.49;57.66
59493;BME280;45497;43.996;22.876;2023-08-08T03:41:20;101187.72;;;18.47;57.70
59493;BME280;45497;43.996;22.876;2023-08-08T03:43:46;101184.44;;;18.38;57.60
59493;BME280;45497;43.996;22.876;2023-08-08T03:46:11;101187.78;;;18.13;58.48
59493;BME280;45497;43.996;22.876;2023-08-08T03:48:37;101184.09;;;18.01;58.50
59493;BME280;45497;43.996;22.876;2023-08-08T03:51:03;101189.66;;;17.93;58.46
59493;BME280;45497;43.996;22.876;2023-08-08T03:53:29;101194.19;;;17.79;58.88
59493;BME280;45497;43.996;22.876;2023-08-08T03:55:55;101190.66;;;17.65;59.17
59493;BME280;45497;43.996;22.876;2023-08-08T03:58:20;101191.66;;;17.64;59.08
59493;BME280;45497;43.996;22.876;2023-08-08T04:00:46;101188.38;;;17.62;59.12
59493;BME280;45497;43.996;22.876;2023-08-08T04:03:13;101197.22;;;17.63;59.26
59493;BME280;45497;43.996;22.876;2023-08-08T04:05:39;101194.13;;;17.46;59.85
59493;BME280;45497;43.996;22.876;2023-08-08T04:08:05;101181.13;;;17.43;59.87
59493;BME280;45497;43.996;22.876;2023-08-08T04:10:30;101187.97;;;17.45;59.75
59493;BME280;45497;43.996;22.876;2023-08-08T04:12:56;101186.28;;;17.44;59.82
59493;BME280;45497;43.996;22.876;2023-08-08T04:15:21;101191.28;;;17.54;59.47
59493;BME280;45497;43.996;22.876;2023-08-08T04:17:47;101191.03;;;17.42;59.79
59493;BME280;45497;43.996;22.876;2023-08-08T04:20:12;101188.38;;;17.49;59.32
59493;BME280;45497;43.996;22.876;2023-08-08T04:22:39;101188.16;;;17.50;59.14
59493;BME280;45497;43.996;22.876;2023-08-08T04:25:05;101193.09;;;17.53;58.93
59493;BME280;45497;43.996;22.876;2023-08-08T04:27:31;101194.94;;;17.46;58.85
59493;BME280;45497;43.996;22.876;2023-08-08T04:29:56;101201.78;;;17.49;58.70
59493;BME280;45497;43.996;22.876;2023-08-08T04:32:22;101200.94;;;17.48;58.60
59493;BME280;45497;43.996;22.876;2023-08-08T04:34:47;101204.88;;;17.52;58.55
59493;BME280;45497;43.996;22.876;2023-08-08T04:37:13;101205.72;;;17.60;58.13
59493;BME280;45497;43.996;22.876;2023-08-08T04:39:38;101217.66;;;17.64;57.96
59493;BME280;45497;43.996;22.876;2023-08-08T04:42:04;101215.59;;;17.66;57.69
59493;BME280;45497;43.996;22.876;2023-08-08T04:44:29;101224.47;;;17.66;57.39
59493;BME280;45497;43.996;22.876;2023-08-08T04:46:55;101224.25;;;17.68;57.51
59493;BME280;45497;43.996;22.876;2023-08-08T04:49:21;101237.47;;;17.76;57.31
59493;BME280;45497;43.996;22.876;2023-08-08T04:51:46;101238.09;;;17.78;57.04
59493;BME280;45497;43.996;22.876;2023-08-08T04:54:12;101243.88;;;17.82;56.96
59493;BME280;45497;43.996;22.876;2023-08-08T04:56:38;101255.69;;;17.94;57.00
59493;BME280;45497;43.996;22.876;2023-08-08T04:59:04;101256.50;;;17.94;56.89
59493;BME280;45497;43.996;22.876;2023-08-08T05:01:29;101256.13;;;18.04;56.90
59493;BME280;45497;43.996;22.876;2023-08-08T05:03:55;101259.81;;;18.17;56.51
59493;BME280;45497;43.996;22.876;2023-08-08T05:06:20;101270.34;;;18.11;56.59
59493;BME280;45497;43.996;22.876;2023-08-08T05:08:46;101269.91;;;18.14;56.57
59493;BME280;45497;43.996;22.876;2023-08-08T05:11:11;101266.84;;;18.24;56.42
59493;BME280;45497;43.996;22.876;2023-08-08T05:13:37;101268.69;;;18.37;56.41
59493;BME280;45497;43.996;22.876;2023-08-08T05:16:02;101269.25;;;18.66;56.01
59493;BME280;45497;43.996;22.876;2023-08-08T05:18:28;101269.34;;;19.11;55.32
59493;BME280;45497;43.996;22.876;2023-08-08T05:20:53;101262.63;;;19.34;54.38
59493;BME280;45497;43.996;22.876;2023-08-08T05:23:19;101268.25;;;19.64;53.88
59493;BME280;45497;43.996;22.876;2023-08-08T05:25:45;101266.03;;;19.86;53.33
59493;BME280;45497;43.996;22.876;2023-08-08T05:28:10;101257.44;;;19.77;52.92
59493;BME280;45497;43.996;22.876;2023-08-08T05:30:36;101266.75;;;19.75;52.78
59493;BME280;45497;43.996;22.876;2023-08-08T05:33:01;101263.44;;;19.79;52.30
59493;BME280;45497;43.996;22.876;2023-08-08T05:35:27;101256.75;;;20.14;52.37
59493;BME280;45497;43.996;22.876;2023-08-08T05:37:52;101262.84;;;20.28;51.30
59493;BME280;45497;43.996;22.876;2023-08-08T05:40:18;101263.09;;;20.44;51.28
59493;BME280;45497;43.996;22.876;2023-08-08T05:42:43;101261.59;;;20.49;51.01
59493;BME280;45497;43.996;22.876;2023-08-08T05:45:09;101262.16;;;20.32;50.58
59493;BME280;45497;43.996;22.876;2023-08-08T05:47:35;101255.28;;;20.36;49.55
59493;BME280;45497;43.996;22.876;2023-08-08T05:50:00;101263.53;;;20.41;49.93
59493;BME280;45497;43.996;22.876;2023-08-08T05:52:26;101263.06;;;20.26;49.35
59493;BME280;45497;43.996;22.876;2023-08-08T05:54:51;101268.09;;;20.16;49.85
59493;BME280;45497;43.996;22.876;2023-08-08T05:57:17;101276.41;;;20.58;49.72
59493;BME280;45497;43.996;22.876;2023-08-08T05:59:42;101278.78;;;20.73;48.90
59493;BME280;45497;43.996;22.876;2023-08-08T06:02:10;101275.72;;;20.88;48.20
59493;BME280;45497;43.996;22.876;2023-08-08T06:04:35;101286.47;;;21.06;47.71
59493;BME280;45497;43.996;22.876;2023-08-08T06:07:01;101271.06;;;20.95;48.00
59493;BME280;45497;43.996;22.876;2023-08-08T06:09:26;101264.78;;;21.19;48.49
59493;BME280;45497;43.996;22.876;2023-08-08T06:11:53;101259.44;;;21.13;47.31
59493;BME280;45497;43.996;22.876;2023-08-08T06:14:18;101261.09;;;21.44;47.44
59493;BME280;45497;43.996;22.876;2023-08-08T06:16:43;101264.09;;;21.06;47.16
59493;BME280;45497;43.996;22.876;2023-08-08T06:19:09;101282.06;;;20.93;47.38
59493;BME280;45497;43.996;22.876;2023-08-08T06:21:35;101269.50;;;20.87;47.42
59493;BME280;45497;43.996;22.876;2023-08-08T06:24:01;101273.34;;;21.28;47.54
59493;BME280;45497;43.996;22.876;2023-08-08T06:26:26;101264.91;;;21.55;46.82
59493;BME280;45497;43.996;22.876;2023-08-08T06:28:52;101267.03;;;21.53;46.35
59493;BME280;45497;43.996;22.876;2023-08-08T06:31:19;101263.66;;;21.39;46.46
59493;BME280;45497;43.996;22.876;2023-08-08T06:33:44;101251.28;;;21.19;46.63
59493;BME280;45497;43.996;22.876;2023-08-08T06:36:10;101254.53;;;21.40;45.79
59493;BME280;45497;43.996;22.876;2023-08-08T06:38:35;101262.75;;;21.15;46.44
59493;BME280;45497;43.996;22.876;2023-08-08T06:41:02;101259.75;;;21.53;46.97
59493;BME280;45497;43.996;22.876;2023-08-08T06:43:28;101268.53;;;21.79;45.99
59493;BME280;45497;43.996;22.876;2023-08-08T06:45:54;101257.03;;;21.84;45.49
59493;BME280;45497;43.996;22.876;2023-08-08T06:48:19;101267.50;;;21.92;45.71
59493;BME280;45497;43.996;22.876;2023-08-08T06:50:45;101267.13;;;22.00;45.37
59493;BME280;45497;43.996;22.876;2023-08-08T06:53:10;101286.84;;;21.47;45.60
59493;BME280;45497;43.996;22.876;2023-08-08T06:55:36;101281.84;;;21.62;45.45
59493;BME280;45497;43.996;22.876;2023-08-08T06:58:01;101290.72;;;21.93;44.54
59493;BME280;45497;43.996;22.876;2023-08-08T07:00:27;101292.09;;;21.84;44.67
59493;BME280;45497;43.996;22.876;2023-08-08T07:02:53;101297.44;;;21.60;45.25
59493;BME280;45497;43.996;22.876;2023-08-08T07:05:19;101297.56;;;21.65;45.53
59493;BME280;45497;43.996;22.876;2023-08-08T07:07:44;101292.84;;;21.61;45.10
59493;BME280;45497;43.996;22.876;2023-08-08T07:10:10;101288.75;;;22.12;44.87
59493;BME280;45497;43.996;22.876;2023-08-08T07:12:37;101285.28;;;22.35;44.53
59493;BME280;45497;43.996;22.876;2023-08-08T07:15:03;101291.38;;;22.19;43.97
59493;BME280;45497;43.996;22.876;2023-08-08T07:17:29;101286.78;;;22.19;44.29
59493;BME280;45497;43.996;22.876;2023-08-08T07:19:54;101293.13;;;22.13;44.96
59493;BME280;45497;43.996;22.876;2023-08-08T07:22:20;101283.97;;;22.26;44.51
59493;BME280;45497;43.996;22.876;2023-08-08T07:24:45;101297.00;;;22.17;43.89
59493;BME280;45497;43.996;22.876;2023-08-08T07:27:11;101278.59;;;21.72;44.21
59493;BME280;45497;43.996;22.876;2023-08-08T07:29:36;101282.53;;;21.39;44.96
59493;BME280;45497;43.996;22.876;2023-08-08T07:32:05;101276.69;;;21.42;45.26
59493;BME280;45497;43.996;22.876;2023-08-08T07:34:31;101295.47;;;21.67;44.52
59493;BME280;45497;43.996;22.876;2023-08-08T07:36:57;101273.25;;;21.95;44.17
59493;BME280;45497;43.996;22.876;2023-08-08T07:39:23;101290.06;;;22.21;43.92
59493;BME280;45497;43.996;22.876;2023-08-08T07:41:48;101285.47;;;22.10;43.85
59493;BME280;45497;43.996;22.876;2023-08-08T07:44:15;101295.34;;;22.16;43.55
59493;BME280;45497;43.996;22.876;2023-08-08T07:46:41;101305.41;;;22.09;43.38
59493;BME280;45497;43.996;22.876;2023-08-08T07:49:06;101307.63;;;21.58;43.28
59493;BME280;45497;43.996;22.876;2023-08-08T07:51:32;101313.72;;;21.35;44.17
59493;BME280;45497;43.996;22.876;2023-08-08T07:53:58;101321.50;;;21.43;44.51
59493;BME280;45497;43.996;22.876;2023-08-08T07:56:24;101303.16;;;21.52;44.33
59493;BME280;45497;43.996;22.876;2023-08-08T07:58:50;101301.41;;;22.00;42.98
59493;BME280;45497;43.996;22.876;2023-08-08T08:01:15;101320.19;;;21.94;43.22
59493;BME280;45497;43.996;22.876;2023-08-08T08:03:42;101307.19;;;22.03;43.48
59493;BME280;45497;43.996;22.876;2023-08-08T08:06:07;101304.28;;;22.17;43.33
59493;BME280;45497;43.996;22.876;2023-08-08T08:08:32;101303.19;;;22.18;43.73
59493;BME280;45497;43.996;22.876;2023-08-08T08:10:58;101311.03;;;22.07;43.72
59493;BME280;45497;43.996;22.876;2023-08-08T08:13:24;101305.00;;;22.24;43.67
59493;BME280;45497;43.996;22.876;2023-08-08T08:15:49;101309.41;;;22.18;43.54
59493;BME280;45497;43.996;22.876;2023-08-08T08:18:15;101336.06;;;22.03;42.69
59493;BME280;45497;43.996;22.876;2023-08-08T08:20:43;101311.13;;;21.77;42.78
59493;BME280;45497;43.996;22.876;2023-08-08T08:23:09;101304.69;;;22.02;42.83
59493;BME280;45497;43.996;22.876;2023-08-08T08:25:35;101321.84;;;21.65;42.58
59493;BME280;45497;43.996;22.876;2023-08-08T08:28:00;101301.09;;;21.66;43.71
59493;BME280;45497;43.996;22.876;2023-08-08T08:30:26;101297.31;;;21.97;42.05
59493;BME280;45497;43.996;22.876;2023-08-08T08:32:55;101322.81;;;21.71;41.18
59493;BME280;45497;43.996;22.876;2023-08-08T08:35:25;101342.28;;;21.73;41.55
59493;BME280;45497;43.996;22.876;2023-08-08T08:37:51;101305.63;;;21.95;42.06
59493;BME280;45497;43.996;22.876;2023-08-08T08:40:17;101301.19;;;22.01;41.07
59493;BME280;45497;43.996;22.876;2023-08-08T08:42:43;101297.44;;;22.02;41.72
59493;BME280;45497;43.996;22.876;2023-08-08T08:45:11;101300.88;;;22.21;42.53
59493;BME280;45497;43.996;22.876;2023-08-08T08:47:37;101284.72;;;22.33;42.01
59493;BME280;45497;43.996;22.876;2023-08-08T08:50:07;101308.53;;;22.36;40.51
59493;BME280;45497;43.996;22.876;2023-08-08T08:52:32;101318.78;;;22.46;41.07
59493;BME280;45497;43.996;22.876;2023-08-08T08:54:58;101329.81;;;22.44;41.27
59493;BME280;45497;43.996;22.876;2023-08-08T08:57:23;101307.72;;;22.36;41.98
59493;BME280;45497;43.996;22.876;2023-08-08T08:59:50;101305.81;;;22.60;41.14
59493;BME280;45497;43.996;22.876;2023-08-08T09:02:15;101320.03;;;22.43;40.58
59493;BME280;45497;43.996;22.876;2023-08-08T09:04:43;101317.34;;;22.43;39.85
59493;BME280;45497;43.996;22.876;2023-08-08T09:07:10;101318.53;;;22.36;40.51
59493;BME280;45497;43.996;22.876;2023-08-08T09:09:36;101313.50;;;22.51;40.86
59493;BME280;45497;43.996;22.876;2023-08-08T09:12:04;101322.28;;;22.35;40.63
59493;BME280;45497;43.996;22.876;2023-08-08T09:14:31;101307.47;;;22.84;40.08
59493;BME280;45497;43.996;22.876;2023-08-08T09:16:57;101309.59;;;22.59;39.40
59493;BME280;45497;43.996;22.876;2023-08-08T09:19:24;101308.25;;;22.14;40.08
59493;BME280;45497;43.996;22.876;2023-08-08T09:21:51;101315.00;;;22.47;40.05
59493;BME280;45497;43.996;22.876;2023-08-08T09:24:17;101311.59;;;22.51;40.16
59493;BME280;45497;43.996;22.876;2023-08-08T09:26:44;101317.72;;;22.35;40.75
59493;BME280;45497;43.996;22.876;2023-08-08T09:29:11;101341.56;;;22.62;40.20
59493;BME280;45497;43.996;22.876;2023-08-08T09:31:38;101320.28;;;22.77;40.23
59493;BME280;45497;43.996;22.876;2023-08-08T09:34:04;101322.50;;;22.80;39.15
59493;BME280;45497;43.996;22.876;2023-08-08T09:36:30;101303.72;;;22.38;39.29
59493;BME280;45497;43.996;22.876;2023-08-08T09:38:56;101328.38;;;22.89;39.07
59493;BME280;45497;43.996;22.876;2023-08-08T09:41:22;101318.28;;;22.61;39.15
59493;BME280;45497;43.996;22.876;2023-08-08T09:43:50;101327.22;;;22.61;39.27
59493;BME280;45497;43.996;22.876;2023-08-08T09:46:18;101329.19;;;22.30;39.94
59493;BME280;45497;43.996;22.876;2023-08-08T09:48:43;101316.63;;;22.71;39.48
59493;BME280;45497;43.996;22.876;2023-08-08T09:51:09;101319.69;;;22.75;38.90
59493;BME280;45497;43.996;22.876;2023-08-08T09:53:35;101322.41;;;22.75;39.38
59493;BME280;45497;43.996;22.876;2023-08-08T09:56:03;101322.41;;;22.87;39.58
59493;BME280;45497;43.996;22.876;2023-08-08T09:58:30;101320.25;;;23.13;38.66
59493;BME280;45497;43.996;22.876;2023-08-08T10:00:56;101314.31;;;23.27;38.45
59493;BME280;45497;43.996;22.876;2023-08-08T10:03:22;101321.56;;;23.39;38.19
59493;BME280;45497;43.996;22.876;2023-08-08T10:05:48;101330.09;;;23.19;38.25
59493;BME280;45497;43.996;22.876;2023-08-08T10:08:18;101324.94;;;23.17;38.17
59493;BME280;45497;43.996;22.876;2023-08-08T10:10:47;101314.06;;;23.41;38.00
59493;BME280;45497;43.996;22.876;2023-08-08T10:13:21;101339.88;;;23.20;37.89
59493;BME280;45497;43.996;22.876;2023-08-08T10:15:46;101332.25;;;22.93;38.81
59493;BME280;45497;43.996;22.876;2023-08-08T10:18:13;101330.72;;;22.97;38.90
59493;BME280;45497;43.996;22.876;2023-08-08T10:20:42;101325.44;;;22.79;38.70
59493;BME280;45497;43.996;22.876;2023-08-08T10:23:08;101317.22;;;23.09;38.12
59493;BME280;45497;43.996;22.876;2023-08-08T10:25:33;101320.88;;;23.32;38.62
59493;BME280;45497;43.996;22.876;2023-08-08T10:28:08;101325.97;;;23.28;38.16
59493;BME280;45497;43.996;22.876;2023-08-08T10:31:03;101310.47;;;23.52;38.36
59493;BME280;45497;43.996;22.876;2023-08-08T10:33:41;101315.22;;;23.74;38.02
59493;BME280;45497;43.996;22.876;2023-08-08T10:36:08;101309.69;;;23.69;37.43
59493;BME280;45497;43.996;22.876;2023-08-08T10:38:44;101310.38;;;23.76;37.26
59493;BME280;45497;43.996;22.876;2023-08-08T10:41:18;101303.81;;;23.72;37.39
59493;BME280;45497;43.996;22.876;2023-08-08T10:43:55;101309.00;;;23.44;38.15
59493;BME280;45497;43.996;22.876;2023-08-08T10:46:31;101308.69;;;23.29;37.37
59493;BME280;45497;43.996;22.876;2023-08-08T10:48:59;101296.41;;;23.67;37.74
59493;BME280;45497;43.996;22.876;2023-08-08T10:51:43;101276.72;;;24.00;37.09
59493;BME280;45497;43.996;22.876;2023-08-08T10:54:19;101287.44;;;23.95;37.13
59493;BME280;45497;43.996;22.876;2023-08-08T10:56:54;101276.91;;;23.82;37.70
59493;BME280;45497;43.996;22.876;2023-08-08T10:59:46;101290.47;;;24.16;37.27
59493;BME280;45497;43.996;22.876;2023-08-08T11:02:12;101289.34;;;24.12;37.22
59493;BME280;45497;43.996;22.876;2023-08-08T11:04:38;101295.91;;;23.70;37.85
59493;BME280;45497;43.996;22.876;2023-08-08T11:07:04;101287.75;;;23.82;37.63
59493;BME280;45497;43.996;22.876;2023-08-08T11:09:30;101280.38;;;24.28;37.01
59493;BME280;45497;43.996;22.876;2023-08-08T11:11:55;101288.16;;;24.41;36.55
59493;BME280;45497;43.996;22.876;2023-08-08T11:14:21;101268.41;;;24.07;36.70
59493;BME280;45497;43.996;22.876;2023-08-08T11:16:49;101289.00;;;24.08;36.70
59493;BME280;45497;43.996;22.876;2023-08-08T11:19:15;101272.50;;;24.10;36.87
59493;BME280;45497;43.996;22.876;2023-08-08T11:21:43;101274.78;;;24.18;37.17
59493;BME280;45497;43.996;22.876;2023-08-08T11:24:10;101280.59;;;23.76;36.81
59493;BME280;45497;43.996;22.876;2023-08-08T11:26:37;101274.97;;;23.65;36.09
59493;BME280;45497;43.996;22.876;2023-08-08T11:29:05;101274.16;;;23.65;37.12
59493;BME280;45497;43.996;22.876;2023-08-08T11:31:31;101286.72;;;23.71;36.52
59493;BME280;45497;43.996;22.876;2023-08-08T11:33:58;101269.19;;;23.74;35.92
59493;BME280;45497;43.996;22.876;2023-08-08T11:36:25;101269.47;;;23.89;36.01
59493;BME280;45497;43.996;22.876;2023-08-08T11:38:51;101265.50;;;24.31;35.88
59493;BME280;45497;43.996;22.876;2023-08-08T11:41:20;101265.25;;;24.32;35.21
59493;BME280;45497;43.996;22.876;2023-08-08T11:43:48;101269.88;;;24.32;35.76
59493;BME280;45497;43.996;22.876;2023-08-08T11:46:14;101260.53;;;24.22;35.61
59493;BME280;45497;43.996;22.876;2023-08-08T11:48:41;101261.31;;;24.23;35.48
59493;BME280;45497;43.996;22.876;2023-08-08T11:51:08;101246.25;;;24.10;36.01
59493;BME280;45497;43.996;22.876;2023-08-08T11:53:34;101249.16;;;24.42;35.78
59493;BME280;45497;43.996;22.876;2023-08-08T11:56:01;101249.03;;;24.71;35.25
59493;BME280;45497;43.996;22.876;2023-08-08T11:58:28;101245.38;;;24.83;35.24
59493;BME280;45497;43.996;22.876;2023-08-08T12:00:56;101244.81;;;24.80;35.32
59493;BME280;45497;43.996;22.876;2023-08-08T12:03:22;101237.78;;;24.85;35.22
59493;BME280;45497;43.996;22.876;2023-08-08T12:05:48;101244.88;;;24.64;35.04
59493;BME280;45497;43.996;22.876;2023-08-08T12:08:21;101234.50;;;24.83;35.20
59493;BME280;45497;43.996;22.876;2023-08-08T12:10:50;101237.19;;;24.99;35.41
59493;BME280;45497;43.996;22.876;2023-08-08T12:13:20;101230.03;;;24.93;35.61
59493;BME280;45497;43.996;22.876;2023-08-08T12:15:47;101229.84;;;25.00;35.77
59493;BME280;45497;43.996;22.876;2023-08-08T12:18:16;101243.66;;;24.54;36.13
59493;BME280;45497;43.996;22.876;2023-08-08T12:20:43;101224.53;;;24.27;36.60
59493;BME280;45497;43.996;22.876;2023-08-08T12:23:08;101233.59;;;24.16;36.88
59493;BME280;45497;43.996;22.876;2023-08-08T12:25:34;101232.38;;;24.63;36.56
59493;BME280;45497;43.996;22.876;2023-08-08T12:27:59;101224.00;;;24.64;35.11
59493;BME280;45497;43.996;22.876;2023-08-08T12:30:25;101227.56;;;24.92;34.97
59493;BME280;45497;43.996;22.876;2023-08-08T12:32:50;101221.47;;;25.02;35.13
59493;BME280;45497;43.996;22.876;2023-08-08T12:35:16;101241.13;;;24.70;34.83
59493;BME280;45497;43.996;22.876;2023-08-08T12:37:42;101225.38;;;24.28;36.28
59493;BME280;45497;43.996;22.876;2023-08-08T12:40:08;101224.41;;;24.17;36.33